Flight Track Log - Related Links

Times and Time Zones

All times are in EDT time to prevent confusion due to time zone crossing. See the DAL1903 flight status page for this flight to view local times or setup timezone preferences in your user account.


Time Position Orientation Groundspeed Altitude Reporting Facility
EDT Latitude Longitude Course Direction KTS MPH feet Rate Location/Type
Sun 10:51:33 PM 40.7758 -111.9756 189° South 222 255 4,700  Level Salt Lake Center
Sun 10:51:57 PM 40.7606 -111.9753 179° South 179 206 5,700 1,976 Climbing Salt Lake Center
Sun 10:52:58 PM 40.7014 -111.9697 176° South 217 250 7,500 1,680 Climbing Salt Lake Center
Sun 10:53:12 PM 40.6961 -111.9678 164° South 214 246 7,800 2,640 Climbing Salt Lake Center
Sun 10:54:13 PM 40.6225 -111.9633 177° South 261 300 10,800 2,732 Climbing Salt Lake Center
Sun 10:55:00 PM 40.5013 -112.2803 189° South  Level Estimated
Sun 10:55:15 PM 40.5197 -111.9556 177° South 320 368 13,400  Level Salt Lake Center
Sun 10:56:00 PM 40.4294 -112.3556 189° South  Level Estimated
Sun 10:56:16 PM 40.4286 -111.9500 177° South 331 381 14,100  Level Salt Lake Center
Sun 10:57:17 PM 40.3342 -111.9436 177° South 339 390 14,100 341 Level Salt Lake Center
Sun 10:58:19 PM 40.2394 -111.9450 181° South 342 394 14,800 1,415 Climbing Salt Lake Center
Sun 10:59:20 PM 40.1417 -111.9592 186° South 354 407 17,000 2,557 Climbing Salt Lake Center
Sun 11:00:21 PM 40.0425 -111.9733 186° South 358 412 20,000 1,869 Climbing Salt Lake Center
Sun 11:01:22 PM 39.9378 -111.9897 187° South 387 445 20,800 976 Climbing Salt Lake Center
Sun 11:02:24 PM 39.8211 -112.0072 187° South 425 489 22,000 1,366 Climbing Salt Lake Center
Sun 11:03:25 PM 39.7006 -112.0242 186° South 435 501 23,600 1,623 Climbing Salt Lake Center
Sun 11:04:26 PM 39.5542 -112.0450 186° South 440 506 25,300 1,525 Climbing Salt Lake Center
Sun 11:05:27 PM 39.4267 -112.0639 187° South 459 528 26,700 1,561 Climbing Salt Lake Center
Sun 11:06:29 PM 39.3017 -112.0808 186° South 451 519 28,500 1,659 Climbing Salt Lake Center
Sun 11:07:30 PM 39.1914 -112.0961 186° South 443 510 30,100 1,623 Climbing Salt Lake Center
Sun 11:08:31 PM 39.0764 -112.1444 198° South 438 504 31,800 2,016 Climbing Salt Lake Center
Sun 11:09:32 PM 38.9531 -112.2378 210° Southwest 429 494 34,200 1,770 Climbing Salt Lake Center
Sun 11:10:33 PM 38.8536 -112.3097 209° Southwest 413 475 35,400 1,073 Climbing Salt Lake Center
Sun 11:11:35 PM 38.7556 -112.3872 212° Southwest 415 478 36,400 927 Climbing Salt Lake Center
Sun 11:12:36 PM 38.6628 -112.4750 216° Southwest 416 479 37,300 787 Climbing Salt Lake Center
Sun 11:13:37 PM 38.5700 -112.5633 217° Southwest 417 480 38,000 344 Climbing Salt Lake Center
Sun 11:14:38 PM 38.4786 -112.6489 216° Southwest 410 472 38,000  Level Salt Lake Center
Sun 11:15:39 PM 38.3861 -112.7350 216° Southwest 412 474 38,000  Level Salt Lake Center
Sun 11:16:40 PM 38.2928 -112.8208 216° Southwest 415 478 38,000  Level Salt Lake Center
Sun 11:17:42 PM 38.1989 -112.9081 216° Southwest 419 482 38,000  Level Salt Lake Center
Sun 11:18:43 PM 38.0864 -113.0111 216° Southwest 420 483 38,000  Level Salt Lake Center
Sun 11:19:44 PM 37.9942 -113.0956 216° Southwest 414 476 38,000  Level Salt Lake Center
Sun 11:20:45 PM 37.9014 -113.1800 216° Southwest 414 476 38,000  Level Salt Lake Center
Sun 11:21:46 PM 37.8100 -113.2642 216° Southwest 412 474 38,000  Level Salt Lake Center
Sun 11:22:48 PM 37.7189 -113.3475 216° Southwest 409 471 38,000  Level Salt Lake Center
Sun 11:23:49 PM 37.6272 -113.4297 215° Southwest 408 470 38,000  Level Salt Lake Center
Sun 11:24:50 PM 37.5361 -113.5119 216° Southwest 407 468 38,000  Level Salt Lake Center
Sun 11:25:51 PM 37.4275 -113.6106 216° Southwest 405 466 38,000  Level Salt Lake Center
Sun 11:26:52 PM 37.3369 -113.6911 215° Southwest 401 461 38,000  Level Salt Lake Center
Sun 11:27:54 PM 37.2467 -113.7725 216° Southwest 401 461 38,000  Level Salt Lake Center
Sun 11:28:55 PM 37.1575 -113.8519 215° Southwest 396 456 38,000  Level Salt Lake Center
Sun 11:29:56 PM 37.0678 -113.9314 215° Southwest 396 456 38,000  Level Salt Lake Center
Sun 11:30:57 PM 36.9781 -114.0111 215° Southwest 397 457 38,000  Level Salt Lake Center
Sun 11:31:58 PM 36.8872 -114.0906 215° Southwest 399 459 38,000  Level Salt Lake Center
Sun 11:32:31 PM 36.8439 -114.1244 212° Southwest 396 456 38,000  Level Los Angeles Center
Sun 11:33:33 PM 36.7428 -114.2136 215° Southwest 393 452 38,000  Level Los Angeles Center
Sun 11:34:34 PM 36.6464 -114.2983 215° Southwest 397 457 38,000 -439 Level Los Angeles Center
Sun 11:35:36 PM 36.5572 -114.3767 215° Southwest 393 452 37,100 -976 Descending Los Angeles Center
Sun 11:36:37 PM 36.4689 -114.4544 215° Southwest 389 448 36,000 -537 Descending Los Angeles Center
Sun 11:37:39 PM 36.3797 -114.5311 215° Southwest 389 448 36,000  Level Los Angeles Center
Sun 11:38:41 PM 36.3017 -114.5989 215° Southwest 347 399 36,000  Level Los Angeles Center
Sun 11:39:42 PM 36.2256 -114.6633 214° Southwest 334 384 36,000  Level Los Angeles Center
Sun 11:40:44 PM 36.1514 -114.7281 215° Southwest 328 377 36,000  Level Los Angeles Center
Sun 11:41:45 PM 36.0639 -114.8039 215° Southwest 321 369 36,000  Level Los Angeles Center
Sun 11:42:47 PM 35.9903 -114.8664 214° Southwest 320 368 36,000  Level Los Angeles Center
Sun 11:43:48 PM 35.8972 -114.8839 189° South 344 396 36,000  Level Los Angeles Center
Sun 11:44:50 PM 35.8058 -114.8033 144° Southeast 429 494 36,000  Level Los Angeles Center
Sun 11:45:51 PM 35.8056 -114.6436 90° East 494 568 36,000  Level Los Angeles Center
Sun 11:46:53 PM 35.9100 -114.5356 40° Northeast 490 564 36,000  Level Los Angeles Center
Sun 11:47:54 PM 36.0217 -114.4417 34° Northeast 488 562 36,000  Level Los Angeles Center
Sun 11:48:56 PM 36.1439 -114.3892 19° North 481 554 36,000  Level Los Angeles Center
Sun 11:49:57 PM 36.2744 -114.4525 339° North 432 497 36,000  Level Los Angeles Center
Sun 11:50:58 PM 36.3172 -114.5731 294° West 392 451 36,000  Level Los Angeles Center
Sun 11:52:00 PM 36.2881 -114.6953 254° West 370 426 36,000  Level Los Angeles Center
Sun 11:53:01 PM 36.2131 -114.7856 224° Southwest 371 427 36,000  Level Los Angeles Center
Sun 11:54:03 PM 36.1389 -114.8694 222° Southwest 363 418 36,000  Level Los Angeles Center
Sun 11:55:04 PM 36.0644 -114.9542 223° Southwest 362 417 36,000  Level Los Angeles Center
Sun 11:56:06 PM 35.9908 -115.0389 223° Southwest 360 414 36,000  Level Los Angeles Center
Sun 11:57:07 PM 35.9183 -115.1194 222° Southwest 354 407 36,000  Level Los Angeles Center
Sun 11:58:09 PM 35.8497 -115.1983 223° Southwest 338 389 36,000  Level Los Angeles Center
Sun 11:59:10 PM 35.7783 -115.2803 223° Southwest 348 400 36,000  Level Los Angeles Center
Mon 12:00:11 AM 35.7078 -115.3589 222° Southwest 342 394 36,000  Level Los Angeles Center
Mon 12:01:13 AM 35.6239 -115.4528 222° Southwest 335 386 36,000  Level Los Angeles Center
Mon 12:02:14 AM 35.5700 -115.5131 222° Southwest 328 377 36,000  Level Los Angeles Center
Mon 12:03:27 AM 35.4856 -115.6086 223° Southwest 344 396 36,000  Level Los Angeles Center
Mon 12:04:29 AM 35.4039 -115.6994 222° Southwest 353 406 36,000  Level Los Angeles Center
Mon 12:05:30 AM 35.3306 -115.7817 222° Southwest 356 410 36,000 -146 Level Los Angeles Center
Mon 12:06:32 AM 35.2581 -115.8628 222° Southwest 355 409 35,700 -780 Descending Los Angeles Center
Mon 12:07:33 AM 35.1872 -115.9392 221° Southwest 342 394 34,400 -1,366 Descending Los Angeles Center
Mon 12:08:35 AM 35.1078 -116.0269 222° Southwest 325 374 32,900 -1,317 Descending Los Angeles Center
Mon 12:09:36 AM 35.0428 -116.0983 222° Southwest 316 364 31,700 -1,268 Descending Los Angeles Center
Mon 12:10:38 AM 34.9792 -116.1675 222° Southwest 308 354 30,300 -1,317 Descending Los Angeles Center
Mon 12:11:39 AM 34.9164 -116.2342 221° Southwest 301 346 29,000 -1,230 Descending Los Angeles Center
Mon 12:12:40 AM 34.8531 -116.3025 222° Southwest 302 348 27,800 -976 Descending Los Angeles Center
Mon 12:13:42 AM 34.7911 -116.3711 222° Southwest 302 348 27,000 -390 Descending Los Angeles Center
Mon 12:14:43 AM 34.7247 -116.4431 222° Southwest 308 354 27,000  Level Los Angeles Center
Mon 12:15:45 AM 34.6519 -116.5231 222° Southwest 339 390 27,000  Level Los Angeles Center
Mon 12:16:46 AM 34.5772 -116.6031 221° Southwest 354 407 27,000 -689 Level Los Angeles Center
Mon 12:17:47 AM 34.4908 -116.6964 222° Southwest 348 400 25,600 -1,366 Descending Los Angeles Center
Mon 12:18:49 AM 34.4194 -116.7731 222° Southwest 343 395 24,200 -1,463 Descending Los Angeles Center
Mon 12:19:50 AM 34.3475 -116.8497 221° Southwest 343 395 22,600 -1,220 Descending Los Angeles Center
Mon 12:20:52 AM 34.2789 -116.9225 221° Southwest 332 382 21,700 -1,171 Descending Los Angeles Center
Mon 12:21:53 AM 34.2175 -116.9897 222° Southwest 306 352 20,200 -1,317 Descending Los Angeles Center
Mon 12:22:55 AM 34.1572 -117.0556 222° Southwest 296 341 19,000 -610 Descending Los Angeles Center
Mon 12:23:51 AM 34.1000 -117.1333 228° Southwest 286 329 19,000 -984 Level Southern California TRACON
Mon 12:24:57 AM 34.0667 -117.2167 244° Southwest 277 319 17,000 -1,700 Descending Southern California TRACON
Mon 12:25:51 AM 34.0500 -117.3000 256° West 274 315 15,600 -1,200 Descending Southern California TRACON
Mon 12:26:57 AM 34.0333 -117.4000 259° West 268 308 14,600 -900 Descending Southern California TRACON
Mon 12:27:51 AM 34.0333 -117.4833 270° West 262 302 13,800 -1,050 Descending Southern California TRACON
Mon 12:28:57 AM 34.0333 -117.5833 270° West 270 311 12,500 -1,381 Descending Southern California TRACON
Mon 12:29:57 AM 34.0167 -117.6667 256° West 243 280 10,900 -1,474 Descending Southern California TRACON
Mon 12:30:51 AM 34.0167 -117.7333 270° West 253 291 9,700 -1,250 Descending Southern California TRACON
Mon 12:31:57 AM 34.0167 -117.8333 270° West 256 295 8,400 -1,100 Descending Southern California TRACON
Mon 12:32:51 AM 34.0000 -117.9167 256° West 248 285 7,500 -1,238 Descending Southern California TRACON
Mon 12:34:03 AM 33.9833 -118.0000 256° West 228 262 5,800 -1,190 Descending Southern California TRACON
Mon 12:34:57 AM 33.9833 -118.0667 270° West 228 262 5,000 -783 Descending Southern California TRACON
Mon 12:35:58 AM 33.9833 -118.1500 270° West 225 259 4,300 -893 Descending Southern California TRACON
Mon 12:36:58 AM 33.9667 -118.2167 253° West 195 224 3,200 -1,053 Descending Southern California TRACON
Mon 12:37:52 AM 33.9667 -118.2667 270° West 188 216 2,300 -947 Descending Southern California TRACON
Mon 12:38:52 AM 33.9667 -118.3333 270° West 151 174 1,400 -810 Descending Southern California TRACON
Mon 12:39:58 AM 33.9500 -118.3667 239° Southwest 131 151 600 -486 Descending Southern California TRACON
Mon 12:41:20 AM 33.9494 -118.4308 269° West 142 163 200 -293 Descending Los Angeles Center

Login

Don't have an account? Register now (free) for customized features, flight alerts, and more!